Time;durP1;ratioP1;P1;durP2;ratioP2;P2;SDS_P1;SDS_P2;PMS_P1;PMS_P2;Temp;Humidity;BMP_temperature;BMP_pressure;BME280_temperature;BME280_humidity;BME280_pressure;Samples;Min_cycle;Max_cycle;Signal;HPM_P1;HPM_P2
2022/08/21 00:02:00;;;;;;;22.25;13.20;;;614.60;2432.00;;;;;;5092117;28;20040;-74
2022/08/21 00:04:26;;;;;;;19.67;13.07;;;614.80;2432.00;;;;;;5092390;28;20458;-74
2022/08/21 00:06:52;;;;;;;24.63;13.13;;;614.80;2432.00;;;;;;5092459;28;20458;-79
2022/08/21 00:09:19;;;;;;;19.23;13.43;;;614.80;2432.00;;;;;;5091662;28;20161;-75
2022/08/21 00:11:45;;;;;;;22.48;12.57;;;614.70;2432.00;;;;;;5091287;28;20032;-76
2022/08/21 00:14:12;;;;;;;20.67;14.52;;;614.80;2432.00;;;;;;5091971;28;20045;-76
2022/08/21 00:16:38;;;;;;;19.25;13.90;;;614.90;2432.00;;;;;;5091890;28;20078;-77
2022/08/21 00:19:05;;;;;;;18.92;13.88;;;614.80;2432.00;;;;;;5091426;28;20020;-75
2022/08/21 00:21:32;;;;;;;22.30;15.63;;;614.80;2432.00;;;;;;5090678;28;20036;-77
2022/08/21 00:23:57;;;;;;;22.30;15.55;;;614.90;2432.00;;;;;;5091235;28;20470;-76
2022/08/21 00:26:23;;;;;;;22.30;14.27;;;614.90;2432.00;;;;;;5091997;28;20039;-75
2022/08/21 00:28:49;;;;;;;18.35;13.88;;;614.90;2432.00;;;;;;5091662;28;20024;-76
2022/08/21 00:31:17;;;;;;;17.30;13.98;;;614.90;2432.00;;;;;;5091639;28;20055;-76
2022/08/21 00:33:43;;;;;;;24.63;14.25;;;615.00;2432.00;;;;;;5092298;28;20024;-76
2022/08/21 00:36:10;;;;;;;21.48;14.60;;;615.00;2432.00;;;;;;5091912;28;20092;-75
2022/08/21 00:38:36;;;;;;;22.88;13.85;;;615.00;2432.00;;;;;;5092004;28;20020;-76
2022/08/21 00:41:04;;;;;;;18.50;14.82;;;615.00;2432.00;;;;;;5091413;28;20093;-75
2022/08/21 00:43:34;;;;;;;19.15;13.20;;;615.00;2432.00;;;;;;5091736;28;20024;-75
2022/08/21 00:46:00;;;;;;;22.80;14.02;;;615.00;2432.00;;;;;;5091867;28;20020;-75
2022/08/21 00:48:27;;;;;;;21.13;13.77;;;615.00;2432.00;;;;;;5092135;28;20024;-75
2022/08/21 00:51:07;;;;;;;21.30;13.82;;;615.00;2432.00;;;;;;5091535;28;20458;-74
2022/08/21 00:53:35;;;;;;;19.77;13.75;;;614.80;2432.00;;;;;;5091786;28;20053;-75
2022/08/21 00:56:03;;;;;;;20.05;13.85;;;614.90;2432.00;;;;;;5090428;28;20032;-74
2022/08/21 00:58:30;;;;;;;28.98;14.10;;;614.90;2432.00;;;;;;5091319;28;20031;-75
2022/08/21 01:00:57;;;;;;;21.95;14.55;;;614.90;2432.00;;;;;;5091798;28;20030;-75
2022/08/21 01:03:25;;;;;;;21.33;13.57;;;614.90;2432.00;;;;;;5091760;28;20140;-75
2022/08/21 01:05:52;;;;;;;21.20;12.48;;;614.80;2432.00;;;;;;5091603;28;20027;-76
2022/08/21 01:08:19;;;;;;;18.15;12.50;;;615.10;2432.00;;;;;;5091911;28;20020;-75
2022/08/21 01:10:46;;;;;;;19.98;13.48;;;615.10;2432.00;;;;;;5091304;28;20024;-77
2022/08/21 01:13:16;;;;;;;22.23;13.90;;;615.10;2432.00;;;;;;5091883;28;20099;-76
2022/08/21 01:15:46;;;;;;;20.63;14.23;;;615.10;2432.00;;;;;;5091179;28;20063;-76
2022/08/21 01:18:13;;;;;;;22.65;12.88;;;615.10;2432.00;;;;;;5091787;28;20063;-77
2022/08/21 01:20:43;;;;;;;29.08;15.85;;;615.00;2432.00;;;;;;5090811;28;20481;-75
2022/08/21 01:23:09;;;;;;;18.17;13.30;;;614.80;2432.00;;;;;;5091438;28;20103;-75
2022/08/21 01:25:35;;;;;;;31.45;15.30;;;614.70;2432.00;;;;;;5091685;28;20099;-76
2022/08/21 01:28:08;;;;;;;28.13;14.63;;;614.70;2432.00;;;;;;5091392;28;20654;-74
2022/08/21 01:30:36;;;;;;;27.23;15.43;;;614.60;2432.00;;;;;;5074840;28;20474;-76
2022/08/21 01:33:02;;;;;;;22.75;17.08;;;614.60;2432.00;;;;;;5074671;28;20041;-76
2022/08/21 01:35:27;;;;;;;22.15;14.77;;;614.50;2432.00;;;;;;5087563;28;20028;-75
2022/08/21 01:37:53;;;;;;;26.65;16.10;;;614.50;2432.00;;;;;;5094537;28;20173;-77
2022/08/21 01:40:19;;;;;;;29.23;16.20;;;614.50;2432.00;;;;;;5094861;28;20051;-76
2022/08/21 01:42:45;;;;;;;31.02;15.68;;;614.50;2432.00;;;;;;5094794;28;20032;-76
2022/08/21 01:45:12;;;;;;;27.05;16.48;;;614.60;2432.00;;;;;;5093832;28;20097;-75
2022/08/21 01:47:38;;;;;;;26.27;16.02;;;614.70;2432.00;;;;;;5095032;28;20027;-76
2022/08/21 01:50:07;;;;;;;23.98;16.23;;;614.70;2432.00;;;;;;5094020;28;20039;-76
2022/08/21 01:52:33;;;;;;;26.42;16.52;;;614.60;2432.00;;;;;;5094893;28;20099;-76
2022/08/21 01:54:59;;;;;;;33.15;18.75;;;614.60;2432.00;;;;;;5100212;28;20099;-76
2022/08/21 01:57:25;;;;;;;27.45;17.20;;;614.60;2432.00;;;;;;5101397;28;20027;-75
2022/08/21 01:59:51;;;;;;;25.02;18.42;;;614.60;2432.00;;;;;;5094126;28;20040;-74
2022/08/21 02:02:17;;;;;;;22.63;16.58;;;614.60;2432.00;;;;;;5093787;28;20409;-77
2022/08/21 02:04:42;;;;;;;30.98;17.08;;;614.70;2432.00;;;;;;5094092;28;20028;-75
2022/08/21 02:07:08;;;;;;;30.90;18.38;;;614.70;2432.00;;;;;;5094265;28;20503;-75
2022/08/21 02:09:34;;;;;;;32.05;19.35;;;614.60;2432.00;;;;;;5094423;28;20024;-75
2022/08/21 02:12:00;;;;;;;26.10;19.38;;;614.60;2432.00;;;;;;5093756;28;20051;-76
2022/08/21 02:14:26;;;;;;;36.92;21.00;;;614.70;2432.00;;;;;;5094132;28;20023;-75
2022/08/21 02:16:52;;;;;;;31.08;21.63;;;614.70;2432.00;;;;;;5094104;28;20048;-75
2022/08/21 02:19:18;;;;;;;32.67;20.80;;;614.70;2432.00;;;;;;5094337;28;20046;-76
2022/08/21 02:21:44;;;;;;;29.50;21.05;;;614.60;2432.00;;;;;;5094124;28;20047;-75
2022/08/21 02:24:11;;;;;;;29.42;20.88;;;614.60;2432.00;;;;;;5094258;28;20362;-77
2022/08/21 02:26:37;;;;;;;28.30;20.23;;;614.60;2432.00;;;;;;5093948;28;20035;-75
2022/08/21 02:29:04;;;;;;;32.03;22.88;;;614.60;2432.00;;;;;;5093665;28;20035;-77
2022/08/21 02:31:31;;;;;;;26.88;19.65;;;614.60;2432.00;;;;;;5093445;28;20490;-77
2022/08/21 02:33:57;;;;;;;34.67;22.75;;;614.40;2432.00;;;;;;5093675;28;20057;-75
2022/08/21 02:36:22;;;;;;;32.40;20.38;;;614.40;2432.00;;;;;;5093169;28;20476;-78
2022/08/21 02:38:49;;;;;;;24.00;20.35;;;614.40;2432.00;;;;;;5093672;28;20024;-75
2022/08/21 02:41:19;;;;;;;30.48;21.40;;;614.40;2432.00;;;;;;5093386;28;20031;-76
2022/08/21 02:43:45;;;;;;;26.77;19.88;;;589.70;2432.00;;;;;;5093415;28;20452;-77
2022/08/21 02:46:12;;;;;;;26.40;19.83;;;589.70;2432.00;;;;;;5093655;28;20024;-78
2022/08/21 02:48:39;;;;;;;28.27;20.65;;;614.40;2432.00;;;;;;5093275;28;20035;-74
2022/08/21 02:51:12;;;;;;;23.92;19.33;;;614.40;2432.00;;;;;;5093350;28;20052;-75
2022/08/21 02:53:39;;;;;;;26.30;19.77;;;614.40;2432.00;;;;;;5093357;28;20032;-75
2022/08/21 02:56:08;;;;;;;29.58;19.35;;;614.40;2432.00;;;;;;5093293;28;20028;-75
2022/08/21 02:58:38;;;;;;;29.27;18.48;;;614.40;2432.00;;;;;;5093315;28;20358;-76
2022/08/21 03:01:09;;;;;;;28.73;18.85;;;614.40;2432.00;;;;;;5092757;28;20079;-75
2022/08/21 03:03:36;;;;;;;30.65;17.25;;;589.70;2432.00;;;;;;5093488;28;20020;-77
2022/08/21 03:06:03;;;;;;;33.53;18.35;;;589.70;2432.00;;;;;;5093208;28;20088;-75
2022/08/21 03:08:29;;;;;;;27.92;18.40;;;589.70;2432.00;;;;;;5088440;28;20036;-75
2022/08/21 03:10:55;;;;;;;34.03;17.60;;;589.70;2432.00;;;;;;5092940;28;20028;-75
2022/08/21 03:13:20;;;;;;;23.75;17.33;;;589.70;2432.00;;;;;;5092906;28;20031;-76
2022/08/21 03:15:47;;;;;;;25.27;16.80;;;614.40;2432.00;;;;;;5091622;28;20043;-77
2022/08/21 03:18:13;;;;;;;25.92;16.63;;;614.40;2432.00;;;;;;5092926;28;20065;-77
2022/08/21 03:20:41;;;;;;;21.30;15.95;;;614.40;2432.00;;;;;;5093106;28;20386;-75
2022/08/21 03:23:07;;;;;;;21.20;15.30;;;614.50;2432.00;;;;;;5092552;28;20028;-75
2022/08/21 03:25:34;;;;;;;22.10;14.50;;;614.60;2432.00;;;;;;5093184;28;20082;-75
2022/08/21 03:28:04;;;;;;;23.98;15.63;;;614.70;2432.00;;;;;;5093128;28;20020;-78
2022/08/21 03:30:33;;;;;;;21.52;13.50;;;614.70;2432.00;;;;;;5092751;28;20107;-74
2022/08/21 03:32:59;;;;;;;22.17;15.13;;;614.50;2432.00;;;;;;5092508;28;20173;-75
2022/08/21 03:35:27;;;;;;;23.92;14.52;;;614.60;2432.00;;;;;;5093006;28;20035;-78
2022/08/21 03:37:54;;;;;;;24.10;13.70;;;614.60;2432.00;;;;;;5092649;28;20078;-77
2022/08/21 03:40:21;;;;;;;18.45;12.95;;;614.50;2432.00;;;;;;5091501;28;20396;-76
2022/08/21 03:42:47;;;;;;;19.20;12.98;;;614.50;2432.00;;;;;;5092051;28;20040;-75
2022/08/21 03:45:16;;;;;;;26.55;13.73;;;614.40;2432.00;;;;;;5092205;28;20035;-77
2022/08/21 03:48:03;;;;;;;18.67;12.65;;;614.40;2432.00;;;;;;5092229;28;20405;-76
2022/08/21 03:50:31;;;;;;;18.63;13.25;;;614.50;2432.00;;;;;;5092565;28;20020;-75
2022/08/21 03:52:57;;;;;;;19.70;13.45;;;614.60;2432.00;;;;;;5091575;28;20125;-78
2022/08/21 03:55:24;;;;;;;21.45;13.32;;;614.60;2432.00;;;;;;5091981;28;20067;-76
2022/08/21 03:57:50;;;;;;;20.05;13.52;;;614.70;2432.00;;;;;;5091994;28;20024;-77
2022/08/21 04:00:16;;;;;;;23.73;12.45;;;614.70;2432.00;;;;;;5091936;28;20093;-76
2022/08/21 04:02:43;;;;;;;22.88;14.52;;;614.60;2432.00;;;;;;5091876;28;20080;-75
2022/08/21 04:05:11;;;;;;;24.35;14.48;;;614.60;2432.00;;;;;;5092230;28;20020;-74
2022/08/21 04:07:36;;;;;;;18.13;14.13;;;614.70;2432.00;;;;;;5092238;28;20026;-77
2022/08/21 04:10:04;;;;;;;19.30;14.52;;;614.60;2432.00;;;;;;5092595;28;20020;-78
2022/08/21 04:12:30;;;;;;;19.38;13.63;;;614.60;2432.00;;;;;;5092551;28;20023;-75
2022/08/21 04:14:56;;;;;;;18.98;12.85;;;614.60;2432.00;;;;;;5091520;28;20028;-78
2022/08/21 04:17:22;;;;;;;19.85;14.23;;;614.60;2432.00;;;;;;5090916;28;20024;-75
2022/08/21 04:19:48;;;;;;;24.42;13.45;;;614.70;2432.00;;;;;;5092023;28;20032;-74
2022/08/21 04:22:15;;;;;;;21.80;14.70;;;614.70;2432.00;;;;;;5091733;28;20039;-76
2022/08/21 04:24:41;;;;;;;26.95;15.18;;;614.70;2432.00;;;;;;5091953;28;20024;-75
2022/08/21 04:27:07;;;;;;;27.52;14.18;;;614.60;2432.00;;;;;;5092171;28;20024;-75
2022/08/21 04:29:33;;;;;;;23.30;14.73;;;614.60;2432.00;;;;;;5091940;28;20032;-77
2022/08/21 04:31:59;;;;;;;24.13;14.65;;;614.60;2432.00;;;;;;5091821;28;20486;-80
2022/08/21 04:34:25;;;;;;;23.20;14.68;;;614.70;2432.00;;;;;;5091702;28;20032;-76
2022/08/21 04:36:50;;;;;;;21.15;14.98;;;614.60;2432.00;;;;;;5092034;28;20031;-77
2022/08/21 04:39:16;;;;;;;28.10;16.02;;;614.60;2432.00;;;;;;5090855;28;20385;-77
2022/08/21 04:41:42;;;;;;;25.77;14.93;;;614.60;2432.00;;;;;;5090558;28;20032;-78
2022/08/21 04:44:08;;;;;;;18.85;14.20;;;614.60;2432.00;;;;;;5091021;28;20023;-78
2022/08/21 04:46:34;;;;;;;23.48;15.40;;;614.60;2432.00;;;;;;5090324;28;20468;-77
2022/08/21 04:49:00;;;;;;;29.45;16.15;;;614.60;2432.00;;;;;;5092490;28;20023;-80
2022/08/21 04:51:31;;;;;;;27.33;15.63;;;614.60;2432.00;;;;;;5090743;28;20028;-81
2022/08/21 04:54:01;;;;;;;21.63;16.85;;;614.60;2432.00;;;;;;5091504;28;20028;-78
2022/08/21 04:56:59;;;;;;;24.60;16.58;;;614.60;2432.00;;;;;;5091901;28;20067;-77
2022/08/21 04:59:31;;;;;;;24.65;18.80;;;614.50;2432.00;;;;;;5054011;28;20086;-76
2022/08/21 05:01:57;;;;;;;31.48;18.10;;;614.40;2432.00;;;;;;5051676;28;20037;-76
2022/08/21 05:04:28;;;;;;;30.20;19.58;;;614.40;2432.00;;;;;;5070509;28;20035;-77
2022/08/21 05:07:00;;;;;;;26.30;18.80;;;614.40;2432.00;;;;;;5084762;28;20094;-76
2022/08/21 05:09:27;;;;;;;26.48;18.73;;;614.40;2432.00;;;;;;5063319;28;20033;-79
2022/08/21 05:11:55;;;;;;;23.38;17.33;;;589.70;2432.00;;;;;;5082120;28;20086;-77
2022/08/21 05:14:21;;;;;;;20.65;15.75;;;589.70;2432.00;;;;;;5081280;28;20071;-77
2022/08/21 05:16:47;;;;;;;23.25;16.15;;;589.70;2432.00;;;;;;5082385;28;20025;-76
2022/08/21 05:19:13;;;;;;;23.95;14.45;;;589.50;2432.00;;;;;;5082214;28;20020;-75
2022/08/21 05:21:42;;;;;;;22.58;15.75;;;589.50;2432.00;;;;;;5083355;28;20050;-76
2022/08/21 05:24:08;;;;;;;22.88;15.68;;;589.50;2432.00;;;;;;5074606;28;20024;-75
2022/08/21 05:26:34;;;;;;;22.20;15.70;;;589.50;2432.00;;;;;;5072237;28;20389;-76
2022/08/21 05:29:00;;;;;;;24.20;17.42;;;589.50;2432.00;;;;;;5071686;28;20032;-76
2022/08/21 05:31:25;;;;;;;20.98;16.95;;;589.50;2432.00;;;;;;5071560;28;20053;-74
2022/08/21 05:33:51;;;;;;;24.05;17.75;;;589.50;2432.00;;;;;;5071394;28;20116;-75
2022/08/21 05:36:18;;;;;;;27.98;19.50;;;589.50;2432.00;;;;;;5092908;28;20020;-79
2022/08/21 05:38:44;;;;;;;32.88;20.48;;;589.50;2432.00;;;;;;5093998;28;20035;-76
2022/08/21 05:41:10;;;;;;;37.33;19.88;;;589.40;2432.00;;;;;;5093717;28;20032;-75
2022/08/21 05:43:36;;;;;;;32.90;18.35;;;589.50;2432.00;;;;;;5094178;28;20016;-75
2022/08/21 05:46:04;;;;;;;22.48;14.95;;;589.50;2432.00;;;;;;5095288;28;20093;-77
2022/08/21 05:48:31;;;;;;;22.35;12.82;;;589.50;2432.00;;;;;;5094967;28;20031;-83
2022/08/21 05:50:57;;;;;;;20.75;14.32;;;589.50;2432.00;;;;;;5093738;28;20020;-78
2022/08/21 05:53:24;;;;;;;25.35;12.15;;;589.50;2432.00;;;;;;5104461;28;20030;-78
2022/08/21 05:55:51;;;;;;;23.40;14.07;;;589.40;2432.00;;;;;;5113880;28;20496;-75
2022/08/21 05:58:21;;;;;;;39.60;20.40;;;589.30;2432.00;;;;;;5098485;28;20028;-74
2022/08/21 06:00:48;;;;;;;44.58;26.30;;;589.40;2432.00;;;;;;5102404;28;20028;-79
2022/08/21 06:03:19;;;;;;;24.45;17.20;;;589.40;2432.00;;;;;;5094059;28;20059;-77
2022/08/21 06:05:45;;;;;;;22.00;14.23;;;589.30;2432.00;;;;;;5099724;28;20031;-81
2022/08/21 06:08:11;;;;;;;23.50;11.90;;;589.30;2432.00;;;;;;5102628;28;20095;-75
2022/08/21 06:10:38;;;;;;;19.77;12.35;;;589.30;2432.00;;;;;;5095704;28;20020;-81
2022/08/21 06:13:04;;;;;;;19.30;12.23;;;589.30;2432.00;;;;;;5099792;28;20517;-78
2022/08/21 06:15:30;;;;;;;18.38;11.65;;;589.30;2432.00;;;;;;5097923;28;20035;-81
2022/08/21 06:17:56;;;;;;;20.85;11.93;;;589.30;2432.00;;;;;;5093039;28;20100;-80
2022/08/21 06:20:22;;;;;;;17.83;12.05;;;589.30;2432.00;;;;;;5107087;28;20035;-79
2022/08/21 06:22:47;;;;;;;22.88;13.40;;;589.30;2432.00;;;;;;5113440;28;20576;-77
2022/08/21 06:25:13;;;;;;;19.58;13.30;;;589.40;2432.00;;;;;;5115009;28;20111;-82
2022/08/21 06:27:39;;;;;;;19.45;12.77;;;589.40;2432.00;;;;;;5098551;28;20024;-81
2022/08/21 06:30:06;;;;;;;25.10;13.13;;;589.40;2432.00;;;;;;5094667;28;20021;-78
2022/08/21 06:32:32;;;;;;;15.07;10.70;;;589.30;2432.00;;;;;;5106824;28;20043;-77
2022/08/21 06:34:58;;;;;;;18.67;9.82;;;589.30;2432.00;;;;;;5099395;28;20112;-77
2022/08/21 06:37:23;;;;;;;12.50;10.02;;;589.30;2432.00;;;;;;5084134;28;20097;-81
2022/08/21 06:39:49;;;;;;;15.18;9.68;;;589.30;2432.00;;;;;;5092314;28;20028;-78
2022/08/21 06:42:16;;;;;;;13.95;9.25;;;589.20;2432.00;;;;;;5092878;28;20155;-79
2022/08/21 06:44:42;;;;;;;12.98;9.32;;;589.30;2432.00;;;;;;5093815;28;20477;-78
2022/08/21 06:47:08;;;;;;;13.20;8.07;;;589.10;2432.00;;;;;;5094106;28;20028;-78
2022/08/21 06:49:34;;;;;;;16.50;8.07;;;589.10;2432.00;;;;;;5092646;28;20035;-78
2022/08/21 06:52:00;;;;;;;12.23;7.68;;;589.00;2432.00;;;;;;5094056;28;20020;-80
2022/08/21 06:54:27;;;;;;;16.13;9.38;;;588.90;2432.00;;;;;;5092488;28;20534;-77
2022/08/21 06:56:53;;;;;;;12.50;8.18;;;588.90;2432.00;;;;;;5092582;28;20032;-76
2022/08/21 06:59:18;;;;;;;12.48;8.57;;;588.80;2432.00;;;;;;5092411;28;20020;-75
2022/08/21 07:01:46;;;;;;;13.93;9.15;;;588.80;2432.00;;;;;;5095955;28;20519;-76
2022/08/21 07:04:11;;;;;;;19.85;9.52;;;588.90;2432.00;;;;;;5102284;28;20030;-78
2022/08/21 07:06:37;;;;;;;17.10;11.23;;;589.00;2432.00;;;;;;5092385;28;20055;-76
2022/08/21 07:09:03;;;;;;;21.05;11.45;;;589.00;2432.00;;;;;;5093799;28;20473;-76
2022/08/21 07:11:29;;;;;;;19.85;10.43;;;588.90;2432.00;;;;;;5093703;28;20020;-76
2022/08/21 07:13:56;;;;;;;13.32;9.95;;;588.80;2432.00;;;;;;5093547;28;20020;-75
2022/08/21 07:16:22;;;;;;;16.83;8.88;;;588.90;2432.00;;;;;;5093500;28;20033;-76
2022/08/21 07:18:48;;;;;;;18.80;10.45;;;589.00;2432.00;;;;;;5091671;28;20069;-74
2022/08/21 07:21:16;;;;;;;24.88;10.88;;;589.00;2432.00;;;;;;5093113;28;20039;-75
2022/08/21 07:23:46;;;;;;;20.88;10.93;;;588.80;2432.00;;;;;;5097428;28;20496;-75
2022/08/21 07:26:15;;;;;;;18.88;10.00;;;588.80;2432.00;;;;;;5094931;28;20470;-75
2022/08/21 07:28:41;;;;;;;18.25;10.15;;;588.80;2432.00;;;;;;5097559;28;20028;-79
2022/08/21 07:31:09;;;;;;;17.90;9.60;;;564.10;2432.00;;;;;;5099223;28;20043;-77
2022/08/21 07:33:35;;;;;;;20.35;9.63;;;564.10;2432.00;;;;;;5104458;28;20024;-77
2022/08/21 07:36:02;;;;;;;20.05;9.40;;;564.10;2432.00;;;;;;5098921;28;20030;-75
2022/08/21 07:38:28;;;;;;;19.92;10.15;;;588.80;2432.00;;;;;;5103684;28;20020;-76
2022/08/21 07:40:58;;;;;;;17.83;9.35;;;588.80;2432.00;;;;;;5092560;28;20417;-76
2022/08/21 07:43:24;;;;;;;18.95;9.75;;;588.80;2432.00;;;;;;5091933;28;20032;-78
2022/08/21 07:45:50;;;;;;;19.48;8.70;;;588.80;2432.00;;;;;;5091818;28;20530;-78
2022/08/21 07:48:16;;;;;;;16.83;9.90;;;588.90;2432.00;;;;;;5093016;28;20063;-75
2022/08/21 07:50:42;;;;;;;14.68;9.00;;;589.00;2432.00;;;;;;5093078;28;20055;-75
2022/08/21 07:53:08;;;;;;;19.30;8.52;;;588.90;2432.00;;;;;;5102969;28;20016;-76
2022/08/21 07:55:34;;;;;;;14.30;10.38;;;588.90;2432.00;;;;;;5093268;28;20088;-75
2022/08/21 07:58:00;;;;;;;23.77;11.50;;;588.90;2432.00;;;;;;5093037;28;20024;-76
2022/08/21 08:00:28;;;;;;;16.02;10.15;;;589.00;2432.00;;;;;;5092440;28;20030;-76
2022/08/21 08:02:54;;;;;;;20.00;12.52;;;588.90;2432.00;;;;;;5077212;28;20189;-80
2022/08/21 08:05:24;;;;;;;23.52;13.43;;;588.90;2432.00;;;;;;5092755;28;20012;-75
2022/08/21 08:07:50;;;;;;;24.52;15.57;;;588.90;2432.00;;;;;;5092958;28;20073;-82
2022/08/21 08:10:17;;;;;;;26.08;17.05;;;588.90;2432.00;;;;;;5092050;28;20036;-74
2022/08/21 08:12:44;;;;;;;25.52;14.95;;;589.00;2432.00;;;;;;5092500;28;20496;-76
2022/08/21 08:15:17;;;;;;;20.33;13.52;;;589.10;2432.00;;;;;;5092774;28;20016;-74
2022/08/21 08:17:43;;;;;;;22.75;11.65;;;589.10;2432.00;;;;;;5092225;28;20035;-74
2022/08/21 08:20:11;;;;;;;15.93;9.80;;;589.10;2432.00;;;;;;5099657;28;20457;-75
2022/08/21 08:22:39;;;;;;;16.48;10.35;;;589.20;2432.00;;;;;;5099297;28;20378;-74
2022/08/21 08:25:06;;;;;;;24.38;13.60;;;589.10;2432.00;;;;;;5092056;28;20024;-75
2022/08/21 08:27:32;;;;;;;16.90;12.50;;;589.30;2432.00;;;;;;5092198;28;20034;-82
2022/08/21 08:29:58;;;;;;;19.67;12.60;;;589.40;2432.00;;;;;;5095697;28;20016;-74
2022/08/21 08:32:24;;;;;;;16.80;12.93;;;589.40;2432.00;;;;;;5099242;28;20056;-74
2022/08/21 08:34:51;;;;;;;18.83;11.70;;;589.50;2432.00;;;;;;5097177;28;20020;-74
2022/08/21 08:37:18;;;;;;;18.25;13.05;;;589.50;2432.00;;;;;;5101445;28;20036;-82
2022/08/21 08:39:44;;;;;;;18.30;12.27;;;589.60;2432.00;;;;;;5097024;28;20251;-74
2022/08/21 08:42:18;;;;;;;17.73;12.25;;;589.60;2432.00;;;;;;5109269;28;20107;-75
2022/08/21 08:44:46;;;;;;;20.40;13.35;;;589.60;2432.00;;;;;;5087032;28;20021;-77
2022/08/21 08:47:15;;;;;;;16.33;12.98;;;589.60;2432.00;;;;;;5096728;28;20470;-75
2022/08/21 08:49:46;;;;;;;18.08;13.10;;;589.70;2432.00;;;;;;5096432;28;20061;-81
2022/08/21 08:52:26;;;;;;;18.95;13.60;;;589.70;2432.00;;;;;;5096374;28;20050;-76
2022/08/21 08:55:07;;;;;;;19.75;14.13;;;589.70;2432.00;;;;;;5095964;28;20016;-76
2022/08/21 08:57:34;;;;;;;20.33;15.23;;;589.70;2432.00;;;;;;5096246;28;20027;-75
2022/08/21 09:00:04;;;;;;;20.77;15.38;;;589.70;2432.00;;;;;;5095791;28;20062;-75
2022/08/21 09:02:30;;;;;;;23.23;16.63;;;589.70;2432.00;;;;;;5102934;28;20083;-79
2022/08/21 09:04:58;;;;;;;24.88;18.13;;;589.60;2432.00;;;;;;5103029;28;20024;-74
2022/08/21 09:08:00;;;;;;;32.03;19.48;;;589.40;2432.00;;;;;;5095758;28;20031;-75
2022/08/21 09:10:36;;;;;;;24.13;17.73;;;589.20;2432.00;;;;;;5091767;28;20032;-83
2022/08/21 09:13:10;;;;;;;24.33;17.65;;;589.20;2432.00;;;;;;5094459;28;20165;-85
2022/08/21 09:15:42;;;;;;;23.65;18.08;;;589.20;2432.00;;;;;;5095917;28;20028;-75
2022/08/21 09:18:31;;;;;;;23.90;17.27;;;589.30;2432.00;;;;;;5094001;28;20101;-76
2022/08/21 09:21:36;;;;;;;29.27;18.48;;;589.40;2432.00;;;;;;5095554;28;20028;-76
2022/08/21 09:24:29;;;;;;;24.38;17.45;;;589.50;2432.00;;;;;;5076414;28;20048;-75
2022/08/21 09:26:55;;;;;;;24.45;18.20;;;589.60;2432.00;;;;;;5095661;28;20030;-77
2022/08/21 09:29:25;;;;;;;30.25;19.65;;;589.70;2432.00;;;;;;5107956;28;20571;-75
2022/08/21 09:31:52;;;;;;;25.88;19.40;;;589.70;2432.00;;;;;;5104078;27;20130;-76
2022/08/21 09:34:29;;;;;;;26.27;21.02;;;589.70;2432.00;;;;;;5100626;28;20016;-75
2022/08/21 09:36:56;;;;;;;26.10;18.58;;;589.70;2432.00;;;;;;5100706;28;20061;-76
2022/08/21 09:39:31;;;;;;;22.60;18.38;;;589.70;2432.00;;;;;;5100439;28;20016;-75
2022/08/21 09:42:05;;;;;;;;;;;589.70;2432.00;;;;;;5103849;28;20038;-77
2022/08/21 09:44:35;;;;;;;22.48;17.60;;;589.70;2432.00;;;;;;5105155;28;19908;-84
2022/08/21 09:47:01;;;;;;;20.27;17.15;;;589.70;2432.00;;;;;;5095153;28;20035;-76
2022/08/21 09:49:36;;;;;;;28.67;19.60;;;589.70;2432.00;;;;;;5093788;28;20024;-74
2022/08/21 09:52:03;;;;;;;22.02;17.85;;;589.70;2432.00;;;;;;5095015;28;20020;-74
2022/08/21 09:54:39;;;;;;;24.65;17.65;;;589.60;2432.00;;;;;;5095258;28;20017;-78
2022/08/21 09:59:52;;;;;;;25.45;17.60;;;589.40;2432.00;;;;;;5103447;28;20077;-84
2022/08/21 10:02:29;;;;;;;25.77;16.08;;;589.70;2432.00;;;;;;5101779;28;20071;-75
2022/08/21 10:05:00;;;;;;;21.27;14.65;;;614.40;2432.00;;;;;;5101232;28;20019;-74
2022/08/21 10:07:30;;;;;;;20.65;13.88;;;614.50;2432.00;;;;;;5107446;28;20019;-74
2022/08/21 10:10:04;;;;;;;18.67;12.70;;;614.60;2432.00;;;;;;5094600;28;20107;-74
2022/08/21 10:12:58;;;;;;;17.92;11.90;;;614.60;2432.00;;;;;;5094894;28;20129;-74
2022/08/21 10:15:55;;;;;;;11.98;9.70;;;614.50;2432.00;;;;;;5094212;28;20432;-79
2022/08/21 10:18:45;;;;;;;13.38;9.75;;;614.60;2432.00;;;;;;5101779;28;20012;-75
2022/08/21 10:21:34;;;;;;;17.13;9.43;;;614.60;2432.00;;;;;;5105610;27;20076;-76
2022/08/21 10:24:32;;;;;;;17.00;10.32;;;614.50;2432.00;;;;;;5094597;28;20053;-75
2022/08/21 10:27:29;;;;;;;12.35;8.55;;;614.50;2432.00;;;;;;5029148;28;20029;-78
2022/08/21 10:30:09;;;;;;;;;;;614.60;2432.00;;;;;;5024776;28;20126;-78
2022/08/21 10:33:09;;;;;;;8.23;6.55;;;614.60;2432.00;;;;;;5031843;28;19920;-79
2022/08/21 10:35:51;;;;;;;9.13;7.03;;;614.50;2432.00;;;;;;5012385;28;20030;-84
2022/08/21 10:38:47;;;;;;;10.02;7.20;;;614.50;2432.00;;;;;;4995963;28;20089;-79
2022/08/21 10:41:46;;;;;;;9.95;7.93;;;614.60;2432.00;;;;;;5001826;28;20120;-80
2022/08/21 10:44:21;;;;;;;9.82;7.15;;;614.70;2432.00;;;;;;5032521;28;20491;-81
2022/08/21 10:47:10;;;;;;;11.68;7.15;;;614.70;2432.00;;;;;;5016198;28;20033;-81
2022/08/21 10:49:43;;;;;;;14.02;8.98;;;614.80;2432.00;;;;;;5032678;28;20038;-81
2022/08/21 10:52:23;;;;;;;11.85;8.75;;;614.80;2432.00;;;;;;5015907;28;20475;-84
2022/08/21 10:55:10;;;;;;;12.70;8.55;;;614.80;2432.00;;;;;;5012679;28;20030;-83
2022/08/21 10:58:11;;;;;;;11.10;8.77;;;614.80;2432.00;;;;;;5001935;28;20080;-78
2022/08/21 11:00:39;;;;;;;12.13;9.70;;;614.80;2432.00;;;;;;5003669;28;20046;-82
2022/08/21 11:03:13;;;;;;;13.73;10.00;;;614.80;2432.00;;;;;;5018462;28;20075;-82
2022/08/21 11:06:11;;;;;;;11.80;9.32;;;614.80;2432.00;;;;;;5078459;28;20484;-80
2022/08/21 11:08:46;;;;;;;12.43;10.40;;;614.80;2432.00;;;;;;5006354;28;20110;-79
2022/08/21 11:11:39;;;;;;;14.00;10.83;;;614.90;2432.00;;;;;;4976180;28;20673;-77
2022/08/21 11:14:34;;;;;;;12.27;10.02;;;615.30;2432.00;;;;;;4979265;28;20268;-84
2022/08/21 11:17:13;;;;;;;16.85;10.50;;;615.30;2432.00;;;;;;5018066;28;20029;-80
2022/08/21 11:20:08;;;;;;;11.98;10.75;;;640.00;2432.00;;;;;;5021837;28;20029;-77
2022/08/21 11:22:43;;;;;;;12.85;10.00;;;640.00;2432.00;;;;;;5006517;28;20037;-81
2022/08/21 11:25:18;;;;;;;14.30;10.38;;;640.10;2432.00;;;;;;5025314;28;20201;-83
2022/08/21 11:27:55;;;;;;;11.35;9.63;;;640.00;2432.00;;;;;;5007629;28;20057;-78
2022/08/21 11:30:22;;;;;;;11.10;8.90;;;640.00;2432.00;;;;;;4981342;28;20113;-83
2022/08/21 11:33:08;;;;;;;13.50;9.55;;;615.30;2432.00;;;;;;5011952;28;20084;-75
2022/08/21 11:35:51;;;;;;;10.98;9.30;;;615.20;2432.00;;;;;;5012144;28;20117;-73
2022/08/21 11:38:40;;;;;;;11.68;9.60;;;615.10;2432.00;;;;;;5011783;28;20048;-73
2022/08/21 11:41:30;;;;;;;11.73;9.63;;;615.10;2432.00;;;;;;5011385;28;20515;-73
2022/08/21 11:44:34;;;;;;;12.00;10.77;;;615.20;2432.00;;;;;;4970065;28;20132;-73
2022/08/21 11:47:15;;;;;;;11.32;10.13;;;615.10;2432.00;;;;;;5041017;28;20016;-73
2022/08/21 11:50:13;;;;;;;12.90;10.88;;;615.10;2432.00;;;;;;5047274;28;20037;-84
2022/08/21 11:52:53;;;;;;;18.70;11.93;;;615.00;2432.00;;;;;;5050491;28;20121;-76
2022/08/21 11:55:28;;;;;;;14.35;11.90;;;615.10;2432.00;;;;;;5050476;28;20036;-73
2022/08/21 11:58:15;;;;;;;14.65;12.60;;;615.10;2432.00;;;;;;5050387;28;20049;-73
2022/08/21 12:00:52;;;;;;;14.48;11.65;;;615.10;2432.00;;;;;;5050419;28;20049;-75
2022/08/21 12:03:40;;;;;;;15.75;11.77;;;615.10;2432.00;;;;;;5050361;28;20045;-77
2022/08/21 12:06:14;;;;;;;14.50;12.95;;;615.20;2432.00;;;;;;5050101;28;20466;-75
2022/08/21 12:08:42;;;;;;;16.27;14.35;;;615.30;2432.00;;;;;;5050347;28;20106;-83
2022/08/21 12:11:24;;;;;;;16.95;13.00;;;640.00;2432.00;;;;;;5050016;28;20021;-74
2022/08/21 12:13:59;;;;;;;17.42;13.60;;;640.50;2432.00;;;;;;5049810;28;20426;-73
2022/08/21 12:16:34;;;;;;;14.80;13.05;;;640.30;2432.00;;;;;;5033515;28;20501;-73
2022/08/21 12:19:10;;;;;;;17.58;12.80;;;640.10;2432.00;;;;;;5050005;28;20032;-77
2022/08/21 12:22:04;;;;;;;17.35;13.40;;;640.30;2432.00;;;;;;5077890;28;20036;-74